createdAt,value
2023-05-10T00:00:35.737Z,16.97
2023-05-10T00:03:02.171Z,16.60
2023-05-10T00:05:28.546Z,16.59
2023-05-10T00:07:54.927Z,16.90
2023-05-10T00:10:21.290Z,16.61
2023-05-10T00:12:47.716Z,16.78
2023-05-10T00:15:14.154Z,16.84
2023-05-10T00:17:40.541Z,16.72
2023-05-10T00:20:06.931Z,16.05
2023-05-10T00:22:33.355Z,16.19
2023-05-10T00:27:26.213Z,16.29
2023-05-10T00:29:52.604Z,16.36
2023-05-10T00:32:19.213Z,16.44
2023-05-10T00:34:45.850Z,16.23
2023-05-10T00:37:12.293Z,16.05
2023-05-10T00:39:38.691Z,15.94
2023-05-10T00:42:05.548Z,16.16
2023-05-10T00:44:32.415Z,16.05
2023-05-10T00:46:58.910Z,16.44
2023-05-10T00:49:25.374Z,16.33
2023-05-10T00:51:51.738Z,16.24
2023-05-10T00:54:18.213Z,16.38
2023-05-10T00:56:49.632Z,16.15
2023-05-10T00:59:17.289Z,16.14
2023-05-10T01:01:44.027Z,15.90
2023-05-10T01:04:10.976Z,16.18
2023-05-10T01:06:37.367Z,15.91
2023-05-10T01:09:03.810Z,15.68
2023-05-10T01:11:30.310Z,15.78
2023-05-10T01:13:56.924Z,15.87
2023-05-10T01:16:23.381Z,15.66
2023-05-10T01:18:49.759Z,15.78
2023-05-10T01:21:17.089Z,15.80
2023-05-10T01:23:43.497Z,15.85
2023-05-10T01:26:09.827Z,16.01
2023-05-10T01:28:36.462Z,15.97
2023-05-10T01:31:02.852Z,16.03
2023-05-10T01:33:29.808Z,15.79
2023-05-10T01:35:56.144Z,15.89
2023-05-10T01:38:22.520Z,15.93
2023-05-10T01:40:48.880Z,16.22
2023-05-10T01:43:15.248Z,16.22
2023-05-10T01:45:41.667Z,15.77
2023-05-10T01:48:08.472Z,16.40
2023-05-10T01:50:34.937Z,16.28
2023-05-10T01:53:01.299Z,16.30
2023-05-10T01:55:27.879Z,16.20
2023-05-10T01:57:55.432Z,16.39
2023-05-10T02:00:22.528Z,16.07
2023-05-10T02:02:51.791Z,15.96
2023-05-10T02:05:18.372Z,16.25
2023-05-10T02:07:44.802Z,16.20
2023-05-10T02:10:11.517Z,16.34
2023-05-10T02:12:37.943Z,16.67
2023-05-10T02:15:04.321Z,16.74
2023-05-10T02:17:30.837Z,16.55
2023-05-10T02:19:57.236Z,16.62
2023-05-10T02:22:23.574Z,16.47
2023-05-10T02:24:49.948Z,16.17
2023-05-10T02:27:16.335Z,16.33
2023-05-10T02:29:42.738Z,16.55
2023-05-10T02:32:09.192Z,16.37
2023-05-10T02:34:35.673Z,16.11
2023-05-10T02:37:02.074Z,16.58
2023-05-10T02:39:29.475Z,16.63
2023-05-10T02:41:57.045Z,16.54
2023-05-10T02:44:23.398Z,16.21
2023-05-10T02:46:49.781Z,15.95
2023-05-10T02:49:16.234Z,16.30
2023-05-10T02:51:42.693Z,15.96
2023-05-10T02:54:09.034Z,16.16
2023-05-10T02:56:35.486Z,16.29
2023-05-10T02:59:01.885Z,16.37
2023-05-10T03:01:28.310Z,16.66
2023-05-10T03:03:54.691Z,16.68
2023-05-10T03:06:21.141Z,16.69
2023-05-10T03:08:47.518Z,16.75
2023-05-10T03:11:13.958Z,17.30
2023-05-10T03:13:41.210Z,17.11
2023-05-10T03:16:08.810Z,17.16
2023-05-10T03:18:35.927Z,17.30
2023-05-10T03:21:03.487Z,17.46
2023-05-10T03:23:29.883Z,17.37
2023-05-10T03:25:56.549Z,16.79
2023-05-10T03:28:23.294Z,16.95
2023-05-10T03:30:50.011Z,16.86
2023-05-10T03:33:16.521Z,17.28
2023-05-10T03:35:46.724Z,16.84
2023-05-10T03:38:13.935Z,16.53
2023-05-10T03:40:40.402Z,16.30
2023-05-10T03:43:07.712Z,16.60
2023-05-10T03:45:34.113Z,16.97
2023-05-10T03:48:00.540Z,16.58
2023-05-10T03:50:27.298Z,16.90
2023-05-10T03:52:54.846Z,17.18
2023-05-10T03:55:21.493Z,16.76
2023-05-10T03:57:50.428Z,16.64
2023-05-10T04:00:17.667Z,16.59
2023-05-10T04:02:47.315Z,16.51
2023-05-10T04:05:18.713Z,16.48
2023-05-10T04:07:45.357Z,16.36
2023-05-10T04:10:12.055Z,16.63
2023-05-10T04:12:38.464Z,16.71
2023-05-10T04:15:04.839Z,16.90
2023-05-10T04:17:32.241Z,16.81
2023-05-10T04:19:58.692Z,16.41
2023-05-10T04:22:25.088Z,16.49
2023-05-10T04:24:51.509Z,16.77
2023-05-10T04:27:17.898Z,16.76
2023-05-10T04:29:44.297Z,16.49
2023-05-10T04:32:11.102Z,16.66
2023-05-10T04:34:37.479Z,16.54
2023-05-10T04:37:03.854Z,16.19
2023-05-10T04:39:30.264Z,16.03
2023-05-10T04:41:56.729Z,15.90
2023-05-10T04:44:23.123Z,16.26
2023-05-10T04:46:49.505Z,16.17
2023-05-10T04:49:15.963Z,16.06
2023-05-10T04:51:42.373Z,15.91
2023-05-10T04:54:09.169Z,16.05
2023-05-10T04:56:35.559Z,16.35
2023-05-10T04:59:01.950Z,16.48
2023-05-10T05:01:28.344Z,16.53
2023-05-10T05:03:54.849Z,16.70
2023-05-10T05:06:25.726Z,16.93
2023-05-10T05:08:52.069Z,16.64
2023-05-10T05:11:18.607Z,16.66
2023-05-10T05:13:44.977Z,16.98
2023-05-10T05:16:12.479Z,16.77
2023-05-10T05:18:39.039Z,16.45
2023-05-10T05:21:05.434Z,16.32
2023-05-10T05:23:31.791Z,16.20
2023-05-10T05:25:58.254Z,15.87
2023-05-10T05:28:24.592Z,16.16
2023-05-10T05:30:50.974Z,15.91
2023-05-10T05:33:17.609Z,15.88
2023-05-10T05:35:48.491Z,16.18
2023-05-10T05:38:15.351Z,16.29
2023-05-10T05:40:41.809Z,15.68
2023-05-10T05:43:08.380Z,15.72
2023-05-10T05:45:34.757Z,16.02
2023-05-10T05:48:01.181Z,15.82
2023-05-10T05:50:27.577Z,16.23
2023-05-10T05:52:54.011Z,16.06
2023-05-10T05:55:20.395Z,15.95
2023-05-10T05:57:46.776Z,16.23
2023-05-10T06:00:13.131Z,16.42
2023-05-10T06:02:39.631Z,16.42
2023-05-10T06:05:06.123Z,16.67
2023-05-10T06:07:32.762Z,16.78
2023-05-10T06:09:59.121Z,16.88
2023-05-10T06:12:25.528Z,16.56
2023-05-10T06:14:52.025Z,16.42
2023-05-10T06:17:19.082Z,16.40
2023-05-10T06:19:45.444Z,16.02
2023-05-10T06:22:11.801Z,16.09
2023-05-10T06:24:38.231Z,16.11
2023-05-10T06:27:05.080Z,16.44
2023-05-10T06:29:31.491Z,16.18
2023-05-10T06:31:58.001Z,16.20
2023-05-10T06:34:24.445Z,15.91
2023-05-10T06:36:50.887Z,16.43
2023-05-10T06:39:17.446Z,16.59
2023-05-10T06:41:43.898Z,16.46
2023-05-10T06:44:10.247Z,16.57
2023-05-10T06:46:36.769Z,16.58
2023-05-10T06:49:03.311Z,16.91
2023-05-10T06:51:29.717Z,16.45
2023-05-10T06:53:56.118Z,16.63
2023-05-10T06:56:22.700Z,16.50
2023-05-10T06:58:49.407Z,16.81
2023-05-10T07:01:16.105Z,17.02
2023-05-10T07:03:42.642Z,16.65
2023-05-10T07:06:15.626Z,16.62
2023-05-10T07:08:48.454Z,16.39
2023-05-10T07:11:14.790Z,16.70
2023-05-10T07:13:44.928Z,16.39
2023-05-10T07:16:11.530Z,16.56
2023-05-10T07:18:37.932Z,16.39
2023-05-10T07:21:04.377Z,16.22
2023-05-10T07:23:31.220Z,16.08
2023-05-10T07:25:58.410Z,16.08
2023-05-10T07:28:27.669Z,16.57
2023-05-10T07:30:54.063Z,16.09
2023-05-10T07:33:20.543Z,16.17
2023-05-10T07:35:47.100Z,16.21
2023-05-10T07:38:13.513Z,16.46
2023-05-10T07:40:39.859Z,16.56
2023-05-10T07:43:06.317Z,16.61
2023-05-10T07:45:32.772Z,16.50
2023-05-10T07:47:59.357Z,17.00
2023-05-10T07:50:25.774Z,16.54
2023-05-10T07:52:52.167Z,16.60
2023-05-10T07:55:18.637Z,16.95
2023-05-10T07:57:45.030Z,17.42
2023-05-10T08:00:11.425Z,16.75
2023-05-10T08:02:40.943Z,17.14
2023-05-10T08:05:07.441Z,17.23
2023-05-10T08:07:34.554Z,16.57
2023-05-10T08:10:01.018Z,16.73
2023-05-10T08:12:27.423Z,16.40
2023-05-10T08:14:58.924Z,16.95
2023-05-10T08:17:27.134Z,17.29
2023-05-10T08:19:53.591Z,17.49
2023-05-10T08:22:19.974Z,17.23
2023-05-10T08:24:46.552Z,17.51
2023-05-10T08:27:12.931Z,17.05
2023-05-10T08:29:49.709Z,16.99
2023-05-10T08:32:17.098Z,17.51
2023-05-10T08:34:43.527Z,17.54
2023-05-10T08:37:11.439Z,17.59
2023-05-10T08:39:37.743Z,17.12
2023-05-10T08:42:04.188Z,16.96
2023-05-10T08:44:31.272Z,16.87
2023-05-10T08:46:57.660Z,16.68
2023-05-10T08:49:24.097Z,16.32
2023-05-10T08:51:50.540Z,16.78
2023-05-10T08:54:16.928Z,16.94
2023-05-10T08:56:43.264Z,17.13
2023-05-10T08:59:09.788Z,16.50
2023-05-10T09:01:36.114Z,16.80
2023-05-10T09:04:02.616Z,16.96
2023-05-10T09:06:30.002Z,17.62
2023-05-10T09:08:57.028Z,17.12
2023-05-10T09:11:23.432Z,16.53
2023-05-10T09:13:49.803Z,16.71
2023-05-10T09:16:22.010Z,16.72
2023-05-10T09:18:48.907Z,16.68
2023-05-10T09:21:15.394Z,16.17
2023-05-10T09:23:41.809Z,16.74
2023-05-10T09:26:08.214Z,16.67
2023-05-10T09:28:34.848Z,16.73
2023-05-10T09:31:01.261Z,16.21
2023-05-10T09:33:27.603Z,16.21
2023-05-10T09:35:53.966Z,16.57
2023-05-10T09:38:20.492Z,16.64
2023-05-10T09:40:46.828Z,16.80
2023-05-10T09:43:13.432Z,16.85
2023-05-10T09:45:39.826Z,17.00
2023-05-10T09:48:06.392Z,17.03
2023-05-10T09:50:32.921Z,17.35
2023-05-10T09:52:59.540Z,17.32
2023-05-10T09:55:25.879Z,17.26
2023-05-10T09:57:52.233Z,17.18
2023-05-10T10:00:18.918Z,16.96
2023-05-10T10:02:45.306Z,17.32
2023-05-10T10:05:12.005Z,17.41
2023-05-10T10:07:38.610Z,17.35
2023-05-10T10:10:05.816Z,17.24
2023-05-10T10:12:32.575Z,17.15
2023-05-10T10:14:58.978Z,17.10
2023-05-10T10:17:25.447Z,16.70
2023-05-10T10:19:52.240Z,16.62
2023-05-10T10:22:18.602Z,16.86
2023-05-10T10:24:45.011Z,16.99
2023-05-10T10:27:11.424Z,17.04
2023-05-10T10:29:37.818Z,16.67
2023-05-10T10:32:04.211Z,16.72
2023-05-10T10:34:30.589Z,16.94
2023-05-10T10:36:57.498Z,17.32
2023-05-10T10:39:24.005Z,17.39
2023-05-10T10:41:50.509Z,17.75
2023-05-10T10:44:16.888Z,17.63
2023-05-10T10:46:43.337Z,17.52
2023-05-10T10:49:09.781Z,17.30
2023-05-10T10:51:36.132Z,16.66
2023-05-10T10:54:02.501Z,17.36
2023-05-10T10:56:28.847Z,17.28
2023-05-10T10:58:57.013Z,17.14
2023-05-10T11:01:23.420Z,16.97
2023-05-10T11:03:49.833Z,16.85
2023-05-10T11:06:16.247Z,17.29
2023-05-10T11:08:43.864Z,17.38
2023-05-10T11:11:10.412Z,17.23
2023-05-10T11:13:36.937Z,17.34
2023-05-10T11:16:03.307Z,17.23
2023-05-10T11:18:29.831Z,17.83
2023-05-10T11:20:56.231Z,18.09
2023-05-10T11:23:22.865Z,18.09
2023-05-10T11:25:49.289Z,18.13
2023-05-10T11:28:15.734Z,18.21
2023-05-10T11:30:42.244Z,17.79
2023-05-10T11:33:08.746Z,17.52
2023-05-10T11:35:35.453Z,17.45
2023-05-10T11:38:01.852Z,17.58
2023-05-10T11:40:28.228Z,17.85
2023-05-10T11:42:54.699Z,17.48
2023-05-10T11:45:22.688Z,17.07
2023-05-10T11:47:49.061Z,17.32
2023-05-10T11:50:15.792Z,16.96
2023-05-10T11:52:42.546Z,16.68
2023-05-10T11:55:08.922Z,17.19
2023-05-10T11:57:35.583Z,17.17
2023-05-10T12:00:04.570Z,17.16
2023-05-10T12:02:34.607Z,17.06
2023-05-10T12:05:01.434Z,17.09
2023-05-10T12:07:27.924Z,17.20
2023-05-10T12:09:54.330Z,17.43
2023-05-10T12:12:20.791Z,17.67
2023-05-10T12:14:47.144Z,17.84
2023-05-10T12:17:14.308Z,17.79
2023-05-10T12:19:40.711Z,18.05
2023-05-10T12:22:07.123Z,18.00
2023-05-10T12:24:33.481Z,18.58
2023-05-10T12:27:00.062Z,18.09
2023-05-10T12:29:26.493Z,18.49
2023-05-10T12:31:52.911Z,18.58
2023-05-10T12:34:19.315Z,18.27
2023-05-10T12:36:45.799Z,18.93
2023-05-10T12:39:12.665Z,19.12
2023-05-10T12:41:40.906Z,18.41
2023-05-10T12:44:09.184Z,18.87
2023-05-10T12:46:35.894Z,18.80
2023-05-10T12:49:09.113Z,19.25
2023-05-10T12:51:36.326Z,19.11
2023-05-10T12:54:02.680Z,19.18
2023-05-10T12:56:29.097Z,19.74
2023-05-10T12:58:55.589Z,19.61
2023-05-10T13:01:22.082Z,18.76
2023-05-10T13:03:48.574Z,19.67
2023-05-10T13:06:14.990Z,18.62
2023-05-10T13:08:41.423Z,18.64
2023-05-10T13:11:07.826Z,19.20
2023-05-10T13:13:34.174Z,19.12
2023-05-10T13:16:00.730Z,19.27
2023-05-10T13:18:27.666Z,19.27
2023-05-10T13:20:54.316Z,19.43
2023-05-10T13:23:21.027Z,19.70
2023-05-10T13:25:47.449Z,19.45
2023-05-10T13:28:14.080Z,19.33
2023-05-10T13:30:40.490Z,19.81
2023-05-10T13:33:06.917Z,20.08
2023-05-10T13:35:33.473Z,20.01
2023-05-10T13:37:59.867Z,19.83
2023-05-10T13:40:26.251Z,19.42
2023-05-10T13:42:53.666Z,19.19
2023-05-10T13:45:20.182Z,19.00
2023-05-10T13:47:46.961Z,19.44
2023-05-10T13:50:13.336Z,19.64
2023-05-10T13:52:39.700Z,19.38
2023-05-10T13:55:06.411Z,20.06
2023-05-10T13:57:32.778Z,20.00
2023-05-10T13:59:59.172Z,20.30
2023-05-10T14:02:26.159Z,20.22
2023-05-10T14:04:52.671Z,19.59
2023-05-10T14:07:19.410Z,19.94
2023-05-10T14:09:45.922Z,20.17
2023-05-10T14:12:12.451Z,19.34
2023-05-10T14:14:38.915Z,20.07
2023-05-10T14:17:05.540Z,19.66
2023-05-10T14:19:35.389Z,19.92
2023-05-10T14:22:01.783Z,20.17
2023-05-10T14:24:28.214Z,20.24
2023-05-10T14:26:54.968Z,20.20
2023-05-10T14:29:21.338Z,19.48
2023-05-10T14:31:47.826Z,19.18
2023-05-10T14:34:14.292Z,19.86
2023-05-10T14:36:42.154Z,19.98
2023-05-10T14:39:08.962Z,20.10
2023-05-10T14:41:35.368Z,20.65
2023-05-10T14:44:02.527Z,20.35
2023-05-10T14:46:29.060Z,20.14
2023-05-10T14:48:55.592Z,20.43
2023-05-10T14:51:22.876Z,21.09
2023-05-10T14:53:50.452Z,20.40
2023-05-10T14:56:16.867Z,19.64
2023-05-10T14:58:43.241Z,20.10
2023-05-10T15:01:09.612Z,20.18
2023-05-10T15:03:36.746Z,19.73
2023-05-10T15:06:03.655Z,20.30
2023-05-10T15:08:30.010Z,19.93
2023-05-10T15:10:56.972Z,19.30
2023-05-10T15:13:23.354Z,19.78
2023-05-10T15:15:49.991Z,19.25
2023-05-10T15:18:16.652Z,19.65
2023-05-10T15:20:43.107Z,19.10
2023-05-10T15:23:09.559Z,19.39
2023-05-10T15:25:38.139Z,19.51
2023-05-10T15:28:04.698Z,19.44
2023-05-10T15:30:31.195Z,19.07
2023-05-10T15:32:57.684Z,18.26
2023-05-10T15:35:24.124Z,18.08
2023-05-10T15:37:50.686Z,17.76
2023-05-10T15:40:17.116Z,17.56
2023-05-10T15:42:43.485Z,17.41
2023-05-10T15:45:09.860Z,17.29
2023-05-10T15:47:36.301Z,17.11
2023-05-10T15:50:03.047Z,16.96
2023-05-10T15:52:29.672Z,17.16
2023-05-10T15:54:56.549Z,17.32
2023-05-10T15:57:22.938Z,17.21
2023-05-10T15:59:49.342Z,17.08
2023-05-10T16:02:16.066Z,17.24
2023-05-10T16:04:42.533Z,17.50
2023-05-10T16:07:08.917Z,17.03
2023-05-10T16:09:35.519Z,16.87
2023-05-10T16:12:04.497Z,16.34
2023-05-10T16:14:30.984Z,16.49
2023-05-10T16:16:57.536Z,16.09
2023-05-10T16:19:24.070Z,16.19
2023-05-10T16:21:50.623Z,16.09
2023-05-10T16:24:17.119Z,16.58
2023-05-10T16:26:43.643Z,15.68
2023-05-10T16:29:10.225Z,15.62
2023-05-10T16:31:36.850Z,15.79
2023-05-10T16:34:03.345Z,16.00
2023-05-10T16:36:29.842Z,16.33
2023-05-10T16:38:56.550Z,16.47
2023-05-10T16:41:22.979Z,16.61
2023-05-10T16:43:49.640Z,16.70
2023-05-10T16:46:16.163Z,16.61
2023-05-10T16:48:42.625Z,16.31
2023-05-10T16:51:09.173Z,16.73
2023-05-10T16:53:36.196Z,16.78
2023-05-10T16:56:02.854Z,16.82
2023-05-10T16:58:29.606Z,16.54
2023-05-10T17:00:56.069Z,16.50
2023-05-10T17:03:22.818Z,16.26
2023-05-10T17:05:49.310Z,16.57
2023-05-10T17:08:15.861Z,16.33
2023-05-10T17:10:42.252Z,16.38
2023-05-10T17:13:10.468Z,16.85
2023-05-10T17:15:37.683Z,16.89
2023-05-10T17:18:04.749Z,16.33
2023-05-10T17:20:31.383Z,16.21
2023-05-10T17:22:57.805Z,16.36
2023-05-10T17:25:24.189Z,16.42
2023-05-10T17:27:50.571Z,16.43
2023-05-10T17:30:19.288Z,16.41
2023-05-10T17:32:45.721Z,16.35
2023-05-10T17:35:12.205Z,16.50
2023-05-10T17:37:38.604Z,16.61
2023-05-10T17:40:07.306Z,16.68
2023-05-10T17:42:33.738Z,16.78
2023-05-10T17:45:00.157Z,17.17
2023-05-10T17:47:26.674Z,17.01
2023-05-10T17:49:53.033Z,16.80
2023-05-10T17:52:19.395Z,16.70
2023-05-10T17:54:45.828Z,16.80
2023-05-10T17:57:12.275Z,16.74
2023-05-10T17:59:38.657Z,16.88
2023-05-10T18:02:05.098Z,16.81
2023-05-10T18:04:31.536Z,17.36
2023-05-10T18:07:01.444Z,17.18
2023-05-10T18:09:27.973Z,16.86
2023-05-10T18:11:54.343Z,16.82
2023-05-10T18:14:36.012Z,17.36
2023-05-10T18:17:06.897Z,17.57
2023-05-10T18:19:33.486Z,17.78
2023-05-10T18:21:59.887Z,17.57
2023-05-10T18:24:37.550Z,17.75
2023-05-10T18:27:05.897Z,17.49
2023-05-10T18:29:32.280Z,17.17
2023-05-10T18:31:58.685Z,17.38
2023-05-10T18:34:25.062Z,17.35
2023-05-10T18:36:52.427Z,17.12
2023-05-10T18:39:18.972Z,17.10
2023-05-10T18:41:45.819Z,17.10
2023-05-10T18:44:12.324Z,16.98
2023-05-10T18:46:39.006Z,17.04
2023-05-10T18:49:08.340Z,16.76
2023-05-10T18:51:34.732Z,16.66
2023-05-10T18:54:01.368Z,16.80
2023-05-10T18:56:27.905Z,16.85
2023-05-10T18:58:54.453Z,16.99
2023-05-10T19:01:21.494Z,16.82
2023-05-10T19:03:47.989Z,17.13
2023-05-10T19:06:14.425Z,17.08
2023-05-10T19:08:41.033Z,17.20
2023-05-10T19:11:07.502Z,16.91
2023-05-10T19:13:33.892Z,16.98
2023-05-10T19:16:00.338Z,16.80
2023-05-10T19:18:27.212Z,16.90
2023-05-10T19:20:53.865Z,16.79
2023-05-10T19:23:20.278Z,17.17
2023-05-10T19:25:47.327Z,17.41
2023-05-10T19:28:13.695Z,17.37
2023-05-10T19:30:40.222Z,17.25
2023-05-10T19:33:06.801Z,17.16
2023-05-10T19:35:33.291Z,17.08
2023-05-10T19:37:59.702Z,17.38
2023-05-10T19:40:26.106Z,17.51
2023-05-10T19:42:52.801Z,17.57
2023-05-10T19:45:20.181Z,17.29
2023-05-10T19:47:47.005Z,17.27
2023-05-10T19:50:13.804Z,17.57
2023-05-10T19:52:40.298Z,17.42
2023-05-10T19:55:07.101Z,17.24
2023-05-10T19:57:33.478Z,17.07
2023-05-10T19:59:59.908Z,17.31
2023-05-10T20:02:26.289Z,17.69
2023-05-10T20:04:52.709Z,17.60
2023-05-10T20:07:19.121Z,17.90
2023-05-10T20:09:45.725Z,17.53
2023-05-10T20:12:12.603Z,17.67
2023-05-10T20:14:38.937Z,17.60
2023-05-10T20:17:05.570Z,17.44
2023-05-10T20:19:32.232Z,17.16
2023-05-10T20:21:58.903Z,17.37
2023-05-10T20:24:25.380Z,17.47
2023-05-10T20:26:51.722Z,17.26
2023-05-10T20:29:18.108Z,17.37
2023-05-10T20:31:44.528Z,16.91
2023-05-10T20:34:11.204Z,17.00
2023-05-10T20:36:38.203Z,16.87
2023-05-10T20:39:04.572Z,17.07
2023-05-10T20:41:30.997Z,17.01
2023-05-10T20:43:57.397Z,16.87
2023-05-10T20:46:24.164Z,16.68
2023-05-10T20:48:50.537Z,16.50
2023-05-10T20:51:16.981Z,16.54
2023-05-10T20:53:43.403Z,16.52
2023-05-10T20:56:09.983Z,16.71
2023-05-10T20:58:36.468Z,16.57
2023-05-10T21:01:02.847Z,16.32
2023-05-10T21:03:29.376Z,16.70
2023-05-10T21:05:55.828Z,16.37
2023-05-10T21:08:22.317Z,16.81
2023-05-10T21:10:48.740Z,16.71
2023-05-10T21:13:15.092Z,16.57
2023-05-10T21:15:41.528Z,16.49
2023-05-10T21:18:08.330Z,16.41
2023-05-10T21:20:34.765Z,16.26
2023-05-10T21:23:01.190Z,16.53
2023-05-10T21:25:27.807Z,16.67
2023-05-10T21:27:54.731Z,16.77
2023-05-10T21:30:21.153Z,16.85
2023-05-10T21:32:47.622Z,16.64
2023-05-10T21:35:14.110Z,16.29
2023-05-10T21:37:40.944Z,16.37
2023-05-10T21:40:07.347Z,16.35
2023-05-10T21:42:33.826Z,16.51
2023-05-10T21:45:00.199Z,16.13
2023-05-10T21:47:26.552Z,16.24
2023-05-10T21:49:53.534Z,16.22
2023-05-10T21:52:20.236Z,16.40
2023-05-10T21:54:46.914Z,16.44
2023-05-10T21:57:13.306Z,16.41
2023-05-10T21:59:39.923Z,16.65
2023-05-10T22:02:06.948Z,16.47
2023-05-10T22:04:33.424Z,16.46
2023-05-10T22:06:59.860Z,16.41
2023-05-10T22:09:26.298Z,16.41
2023-05-10T22:11:52.645Z,16.89
2023-05-10T22:14:19.082Z,17.03
2023-05-10T22:16:45.481Z,16.81
2023-05-10T22:19:12.182Z,16.88
2023-05-10T22:21:38.815Z,16.77
2023-05-10T22:24:05.272Z,16.82
2023-05-10T22:26:31.761Z,16.69
2023-05-10T22:28:58.228Z,16.76
2023-05-10T22:31:24.706Z,16.58
2023-05-10T22:33:51.127Z,16.58
2023-05-10T22:36:17.669Z,16.43
2023-05-10T22:38:44.084Z,16.17
2023-05-10T22:41:10.453Z,16.16
2023-05-10T22:43:36.827Z,16.19
2023-05-10T22:46:03.296Z,16.47
2023-05-10T22:48:29.695Z,16.47
2023-05-10T22:50:56.254Z,16.52
2023-05-10T22:53:22.653Z,16.70
2023-05-10T22:55:48.946Z,16.69
2023-05-10T22:58:15.391Z,16.72
2023-05-10T23:00:41.742Z,16.55
2023-05-10T23:03:08.195Z,16.30
2023-05-10T23:05:34.510Z,16.27
2023-05-10T23:08:00.924Z,16.38
2023-05-10T23:10:27.347Z,16.30
2023-05-10T23:12:55.519Z,16.60
2023-05-10T23:15:21.917Z,16.47
2023-05-10T23:17:48.350Z,16.33
2023-05-10T23:20:15.127Z,16.41
2023-05-10T23:22:41.608Z,16.38
2023-05-10T23:25:07.930Z,16.32
2023-05-10T23:27:34.325Z,16.59
2023-05-10T23:30:00.758Z,16.43
2023-05-10T23:32:27.233Z,16.89
2023-05-10T23:34:53.797Z,17.08
2023-05-10T23:37:20.171Z,16.89
2023-05-10T23:39:46.561Z,17.19
2023-05-10T23:42:12.937Z,17.07
2023-05-10T23:44:39.342Z,17.32
2023-05-10T23:47:06.046Z,16.95
2023-05-10T23:49:32.416Z,16.86
2023-05-10T23:51:58.810Z,16.57
2023-05-10T23:54:25.204Z,16.60
2023-05-10T23:56:51.729Z,16.36
2023-05-10T23:59:18.061Z,16.05
